sensor_id;sensor_type;location;lat;lon;timestamp;P1;durP1;ratioP1;P2;durP2;ratioP2
45867;SDS011;31582;45.490;7.860;2023-04-15T00:01:34;5.07;;;1.42;;
45867;SDS011;31582;45.490;7.860;2023-04-15T00:04:02;5.87;;;1.50;;
45867;SDS011;31582;45.490;7.860;2023-04-15T00:06:30;6.70;;;2.13;;
45867;SDS011;31582;45.490;7.860;2023-04-15T00:08:57;3.38;;;1.50;;
45867;SDS011;31582;45.490;7.860;2023-04-15T00:11:24;2.95;;;1.30;;
45867;SDS011;31582;45.490;7.860;2023-04-15T00:13:51;3.45;;;1.08;;
45867;SDS011;31582;45.490;7.860;2023-04-15T00:16:18;1.95;;;0.80;;
45867;SDS011;31582;45.490;7.860;2023-04-15T00:18:45;2.23;;;0.83;;
45867;SDS011;31582;45.490;7.860;2023-04-15T00:21:12;2.15;;;0.90;;
45867;SDS011;31582;45.490;7.860;2023-04-15T00:23:39;2.90;;;0.80;;
45867;SDS011;31582;45.490;7.860;2023-04-15T00:26:06;2.23;;;1.00;;
45867;SDS011;31582;45.490;7.860;2023-04-15T00:28:33;1.30;;;0.70;;
45867;SDS011;31582;45.490;7.860;2023-04-15T00:31:00;1.70;;;0.80;;
45867;SDS011;31582;45.490;7.860;2023-04-15T00:33:27;1.63;;;0.57;;
45867;SDS011;31582;45.490;7.860;2023-04-15T00:35:54;1.55;;;0.57;;
45867;SDS011;31582;45.490;7.860;2023-04-15T00:38:21;2.05;;;0.60;;
45867;SDS011;31582;45.490;7.860;2023-04-15T00:40:48;2.40;;;0.82;;
45867;SDS011;31582;45.490;7.860;2023-04-15T00:43:15;0.80;;;0.50;;
45867;SDS011;31582;45.490;7.860;2023-04-15T00:45:42;1.42;;;0.60;;
45867;SDS011;31582;45.490;7.860;2023-04-15T00:48:09;1.67;;;0.70;;
45867;SDS011;31582;45.490;7.860;2023-04-15T00:50:37;1.33;;;0.50;;
45867;SDS011;31582;45.490;7.860;2023-04-15T00:53:04;1.70;;;0.73;;
45867;SDS011;31582;45.490;7.860;2023-04-15T00:55:31;0.90;;;0.50;;
45867;SDS011;31582;45.490;7.860;2023-04-15T00:57:58;1.70;;;0.50;;
45867;SDS011;31582;45.490;7.860;2023-04-15T01:00:25;0.95;;;0.55;;
45867;SDS011;31582;45.490;7.860;2023-04-15T19:55:23;2.00;;;1.20;;
45867;SDS011;31582;45.490;7.860;2023-04-15T19:57:50;4.15;;;1.40;;
45867;SDS011;31582;45.490;7.860;2023-04-15T20:00:17;2.42;;;1.08;;
45867;SDS011;31582;45.490;7.860;2023-04-15T20:02:44;3.08;;;1.13;;
45867;SDS011;31582;45.490;7.860;2023-04-15T20:05:11;2.58;;;1.33;;
45867;SDS011;31582;45.490;7.860;2023-04-15T20:07:39;3.42;;;1.42;;
45867;SDS011;31582;45.490;7.860;2023-04-15T20:10:07;3.50;;;1.88;;
45867;SDS011;31582;45.490;7.860;2023-04-15T20:12:39;4.57;;;2.80;;
45867;SDS011;31582;45.490;7.860;2023-04-15T20:15:17;5.60;;;3.25;;
45867;SDS011;31582;45.490;7.860;2023-04-15T20:17:45;4.20;;;2.85;;
45867;SDS011;31582;45.490;7.860;2023-04-15T20:20:13;4.68;;;2.85;;
45867;SDS011;31582;45.490;7.860;2023-04-15T20:22:40;5.90;;;2.90;;
45867;SDS011;31582;45.490;7.860;2023-04-15T20:25:07;5.13;;;2.72;;
45867;SDS011;31582;45.490;7.860;2023-04-15T20:27:34;4.20;;;2.20;;
45867;SDS011;31582;45.490;7.860;2023-04-15T20:30:02;5.18;;;1.98;;
45867;SDS011;31582;45.490;7.860;2023-04-15T20:32:30;4.35;;;1.50;;
45867;SDS011;31582;45.490;7.860;2023-04-15T20:35:02;4.00;;;1.60;;
45867;SDS011;31582;45.490;7.860;2023-04-15T20:37:31;3.72;;;1.80;;
45867;SDS011;31582;45.490;7.860;2023-04-15T20:39:59;3.20;;;1.80;;
45867;SDS011;31582;45.490;7.860;2023-04-15T20:42:26;4.47;;;2.22;;
45867;SDS011;31582;45.490;7.860;2023-04-15T20:44:57;4.93;;;2.05;;
45867;SDS011;31582;45.490;7.860;2023-04-15T20:47:24;5.45;;;2.58;;
45867;SDS011;31582;45.490;7.860;2023-04-15T20:49:51;4.88;;;2.28;;
45867;SDS011;31582;45.490;7.860;2023-04-15T20:52:19;3.33;;;1.97;;
45867;SDS011;31582;45.490;7.860;2023-04-15T20:54:46;2.90;;;1.92;;
45867;SDS011;31582;45.490;7.860;2023-04-15T20:57:13;4.32;;;1.75;;
45867;SDS011;31582;45.490;7.860;2023-04-15T20:59:40;2.45;;;1.30;;
45867;SDS011;31582;45.490;7.860;2023-04-15T21:02:06;3.30;;;1.67;;
45867;SDS011;31582;45.490;7.860;2023-04-15T21:04:34;4.50;;;1.98;;
45867;SDS011;31582;45.490;7.860;2023-04-15T21:07:03;3.97;;;2.35;;
45867;SDS011;31582;45.490;7.860;2023-04-15T21:09:30;3.33;;;2.13;;
45867;SDS011;31582;45.490;7.860;2023-04-15T21:11:56;5.60;;;2.70;;
45867;SDS011;31582;45.490;7.860;2023-04-15T21:14:27;14.93;;;6.22;;
45867;SDS011;31582;45.490;7.860;2023-04-15T21:16:55;8.27;;;4.80;;
45867;SDS011;31582;45.490;7.860;2023-04-15T21:19:23;6.23;;;3.73;;
45867;SDS011;31582;45.490;7.860;2023-04-15T21:21:50;6.07;;;2.75;;
45867;SDS011;31582;45.490;7.860;2023-04-15T21:24:17;6.55;;;2.92;;
45867;SDS011;31582;45.490;7.860;2023-04-15T21:26:44;4.67;;;2.77;;
45867;SDS011;31582;45.490;7.860;2023-04-15T21:29:11;4.03;;;2.30;;
45867;SDS011;31582;45.490;7.860;2023-04-15T21:31:39;3.75;;;2.13;;
45867;SDS011;31582;45.490;7.860;2023-04-15T21:34:06;4.45;;;2.50;;
45867;SDS011;31582;45.490;7.860;2023-04-15T21:36:33;4.18;;;2.67;;
45867;SDS011;31582;45.490;7.860;2023-04-15T21:39:00;5.05;;;2.70;;
45867;SDS011;31582;45.490;7.860;2023-04-15T21:41:27;4.35;;;2.47;;
45867;SDS011;31582;45.490;7.860;2023-04-15T21:43:54;5.28;;;2.30;;
45867;SDS011;31582;45.490;7.860;2023-04-15T21:46:21;3.73;;;2.13;;
45867;SDS011;31582;45.490;7.860;2023-04-15T21:48:57;5.93;;;2.55;;
45867;SDS011;31582;45.490;7.860;2023-04-15T21:51:24;5.68;;;2.55;;
45867;SDS011;31582;45.490;7.860;2023-04-15T21:53:51;3.55;;;2.33;;
45867;SDS011;31582;45.490;7.860;2023-04-15T21:56:18;4.13;;;2.70;;
45867;SDS011;31582;45.490;7.860;2023-04-15T21:58:48;5.03;;;2.30;;
45867;SDS011;31582;45.490;7.860;2023-04-15T22:01:15;4.75;;;2.65;;
45867;SDS011;31582;45.490;7.860;2023-04-15T22:03:44;17.60;;;9.20;;
45867;SDS011;31582;45.490;7.860;2023-04-15T22:06:11;82.70;;;42.13;;
45867;SDS011;31582;45.490;7.860;2023-04-15T22:08:39;42.38;;;21.92;;
45867;SDS011;31582;45.490;7.860;2023-04-15T22:11:21;30.20;;;15.55;;
45867;SDS011;31582;45.490;7.860;2023-04-15T22:13:53;10.52;;;4.72;;
45867;SDS011;31582;45.490;7.860;2023-04-15T22:16:20;5.40;;;1.95;;
45867;SDS011;31582;45.490;7.860;2023-04-15T22:18:47;3.60;;;1.23;;
45867;SDS011;31582;45.490;7.860;2023-04-15T22:21:14;3.50;;;1.00;;
45867;SDS011;31582;45.490;7.860;2023-04-15T22:23:44;3.85;;;1.40;;
45867;SDS011;31582;45.490;7.860;2023-04-15T22:26:12;2.65;;;1.20;;
45867;SDS011;31582;45.490;7.860;2023-04-15T22:28:39;3.28;;;1.40;;
45867;SDS011;31582;45.490;7.860;2023-04-15T22:31:07;3.92;;;1.88;;
45867;SDS011;31582;45.490;7.860;2023-04-15T22:33:34;5.55;;;2.78;;
45867;SDS011;31582;45.490;7.860;2023-04-15T22:36:00;7.47;;;3.33;;
45867;SDS011;31582;45.490;7.860;2023-04-15T22:38:27;7.93;;;4.53;;
45867;SDS011;31582;45.490;7.860;2023-04-15T22:40:54;9.15;;;4.50;;
45867;SDS011;31582;45.490;7.860;2023-04-15T22:43:21;8.48;;;4.95;;
45867;SDS011;31582;45.490;7.860;2023-04-15T22:45:48;6.50;;;4.13;;
45867;SDS011;31582;45.490;7.860;2023-04-15T22:48:16;6.28;;;3.70;;
45867;SDS011;31582;45.490;7.860;2023-04-15T22:50:44;8.27;;;4.55;;
45867;SDS011;31582;45.490;7.860;2023-04-15T22:53:11;7.50;;;3.43;;
45867;SDS011;31582;45.490;7.860;2023-04-15T22:55:38;4.13;;;2.53;;
45867;SDS011;31582;45.490;7.860;2023-04-15T22:58:05;4.78;;;2.60;;
45867;SDS011;31582;45.490;7.860;2023-04-15T23:00:32;4.78;;;3.10;;
45867;SDS011;31582;45.490;7.860;2023-04-15T23:02:58;11.35;;;6.50;;
45867;SDS011;31582;45.490;7.860;2023-04-15T23:05:26;5.72;;;3.33;;
45867;SDS011;31582;45.490;7.860;2023-04-15T23:07:53;16.48;;;9.25;;
45867;SDS011;31582;45.490;7.860;2023-04-15T23:10:19;5.72;;;3.30;;
45867;SDS011;31582;45.490;7.860;2023-04-15T23:12:46;4.55;;;2.67;;
45867;SDS011;31582;45.490;7.860;2023-04-15T23:15:13;9.13;;;2.63;;
45867;SDS011;31582;45.490;7.860;2023-04-15T23:17:41;4.15;;;2.97;;
45867;SDS011;31582;45.490;7.860;2023-04-15T23:20:08;5.67;;;3.07;;
45867;SDS011;31582;45.490;7.860;2023-04-15T23:22:36;6.50;;;2.58;;
45867;SDS011;31582;45.490;7.860;2023-04-15T23:25:04;5.47;;;2.45;;
45867;SDS011;31582;45.490;7.860;2023-04-15T23:27:31;5.05;;;2.45;;
45867;SDS011;31582;45.490;7.860;2023-04-15T23:29:58;4.68;;;2.20;;
45867;SDS011;31582;45.490;7.860;2023-04-15T23:32:25;4.70;;;2.38;;
45867;SDS011;31582;45.490;7.860;2023-04-15T23:34:52;3.60;;;2.30;;
45867;SDS011;31582;45.490;7.860;2023-04-15T23:37:19;4.00;;;1.77;;
45867;SDS011;31582;45.490;7.860;2023-04-15T23:39:46;3.15;;;1.77;;
45867;SDS011;31582;45.490;7.860;2023-04-15T23:42:13;3.97;;;2.10;;
45867;SDS011;31582;45.490;7.860;2023-04-15T23:44:42;2.33;;;1.60;;
45867;SDS011;31582;45.490;7.860;2023-04-15T23:47:10;4.50;;;2.10;;
45867;SDS011;31582;45.490;7.860;2023-04-15T23:49:36;3.33;;;2.20;;
45867;SDS011;31582;45.490;7.860;2023-04-15T23:52:06;6.22;;;2.92;;
45867;SDS011;31582;45.490;7.860;2023-04-15T23:54:33;4.13;;;2.22;;
45867;SDS011;31582;45.490;7.860;2023-04-15T23:57:00;3.10;;;1.70;;
45867;SDS011;31582;45.490;7.860;2023-04-15T23:59:28;5.18;;;2.33;;
